createdAt,value
2023-07-29T00:00:05.539Z,92615.84
2023-07-29T00:02:55.487Z,92617.09
2023-07-29T00:05:39.221Z,92607.50
2023-07-29T00:08:22.412Z,92605.91
2023-07-29T00:11:06.638Z,92602.72
2023-07-29T00:13:51.184Z,92605.91
2023-07-29T00:16:34.226Z,92600.09
2023-07-29T00:19:17.933Z,92604.53
2023-07-29T00:22:00.973Z,92595.31
2023-07-29T00:24:43.836Z,92601.50
2023-07-29T00:27:28.596Z,92603.13
2023-07-29T00:30:12.935Z,92597.72
2023-07-29T00:32:55.795Z,92599.31
2023-07-29T00:35:38.671Z,92597.50
2023-07-29T00:38:21.713Z,92590.50
2023-07-29T00:41:05.199Z,92584.47
2023-07-29T00:43:49.394Z,92587.28
2023-07-29T00:46:34.200Z,92588.09
2023-07-29T00:49:17.366Z,92581.09
2023-07-29T00:52:00.485Z,92575.06
2023-07-29T00:54:44.238Z,92569.47
2023-07-29T00:57:27.449Z,92580.50
2023-07-29T01:00:12.830Z,92590.91
2023-07-29T01:02:56.254Z,92585.34
2023-07-29T01:05:49.538Z,92578.75
2023-07-29T01:08:40.591Z,92587.75
2023-07-29T01:11:35.678Z,92587.78
2023-07-29T01:14:23.918Z,92587.97
2023-07-29T01:17:14.590Z,92582.97
2023-07-29T01:20:03.912Z,92579.78
2023-07-29T01:22:46.840Z,92577.38
2023-07-29T01:25:31.132Z,92570.78
2023-07-29T01:28:14.054Z,92567.78
2023-07-29T01:31:04.233Z,92571.81
2023-07-29T01:33:58.471Z,92575.81
2023-07-29T01:36:47.469Z,92574.81
2023-07-29T01:39:34.880Z,92572.03
2023-07-29T01:42:19.562Z,92576.63
2023-07-29T01:45:02.638Z,92569.22
2023-07-29T01:47:45.619Z,92568.22
2023-07-29T01:50:28.553Z,92576.00
2023-07-29T01:53:11.458Z,92575.41
2023-07-29T01:55:54.437Z,92581.84
2023-07-29T01:58:38.752Z,92575.81
2023-07-29T02:01:21.668Z,92577.66
2023-07-29T02:04:04.749Z,92573.66
2023-07-29T02:06:47.765Z,92579.88
2023-07-29T02:09:32.142Z,92574.84
2023-07-29T02:12:15.059Z,92581.06
2023-07-29T02:14:59.240Z,92573.06
2023-07-29T02:17:43.857Z,92564.66
2023-07-29T02:20:26.934Z,92554.44
2023-07-29T02:23:09.898Z,92552.25
2023-07-29T02:25:52.812Z,92561.66
2023-07-29T02:28:35.816Z,92551.44
2023-07-29T02:31:23.528Z,92549.81
2023-07-29T02:34:06.752Z,92554.03
2023-07-29T02:36:49.772Z,92543.84
2023-07-29T02:39:33.035Z,92554.25
2023-07-29T02:42:16.426Z,92552.84
2023-07-29T02:44:59.982Z,92553.88
2023-07-29T02:47:44.250Z,92555.88
2023-07-29T02:50:27.190Z,92560.31
2023-07-29T02:53:10.057Z,92571.50
2023-07-29T02:55:53.009Z,92578.06
2023-07-29T02:58:37.465Z,92566.84
2023-07-29T03:01:20.818Z,92568.50
2023-07-29T03:04:05.374Z,92568.53
2023-07-29T03:06:49.420Z,92572.34
2023-07-29T03:09:32.575Z,92569.53
2023-07-29T03:12:15.427Z,92565.72
2023-07-29T03:14:58.307Z,92577.16
2023-07-29T03:17:41.312Z,92585.16
2023-07-29T03:20:25.604Z,92579.16
2023-07-29T03:23:08.641Z,92580.34
2023-07-29T03:25:52.399Z,92579.56
2023-07-29T03:28:35.729Z,92583.16
2023-07-29T03:31:18.983Z,92585.75
2023-07-29T03:34:02.508Z,92589.16
2023-07-29T03:36:48.784Z,92587.56
2023-07-29T03:39:31.692Z,92594.94
2023-07-29T03:42:14.579Z,92600.56
2023-07-29T03:44:57.560Z,92599.78
2023-07-29T03:47:41.160Z,92602.16
2023-07-29T03:50:24.572Z,92607.97
2023-07-29T03:53:11.086Z,92608.19
2023-07-29T03:55:54.025Z,92617.16
2023-07-29T03:58:36.965Z,92617.41
2023-07-29T04:01:19.968Z,92613.56
2023-07-29T04:04:03.298Z,92616.41
2023-07-29T04:06:46.336Z,92605.78
2023-07-29T04:09:30.782Z,92602.78
2023-07-29T04:12:13.844Z,92597.38
2023-07-29T04:14:56.763Z,92596.19
2023-07-29T04:17:39.679Z,92599.56
2023-07-29T04:20:22.731Z,92601.97
2023-07-29T04:23:05.635Z,92603.38
2023-07-29T04:25:51.010Z,92600.78
2023-07-29T04:28:33.904Z,92603.78
2023-07-29T04:31:16.868Z,92602.78
2023-07-29T04:33:59.815Z,92610.19
2023-07-29T04:36:42.879Z,92611.59
2023-07-29T04:39:25.994Z,92619.75
2023-07-29T04:42:10.322Z,92618.59
2023-07-29T04:44:53.220Z,92619.00
2023-07-29T04:47:36.177Z,92616.00
2023-07-29T04:50:19.554Z,92619.97
2023-07-29T04:53:02.379Z,92610.97
2023-07-29T04:55:45.410Z,92613.00
2023-07-29T04:58:30.877Z,92620.19
2023-07-29T05:01:14.908Z,92612.53
2023-07-29T05:03:57.831Z,92614.97
2023-07-29T05:06:40.770Z,92613.75
2023-07-29T05:09:23.678Z,92611.53
2023-07-29T05:12:08.025Z,92605.56
2023-07-29T05:14:52.277Z,92602.97
2023-07-29T05:17:35.657Z,92607.56
2023-07-29T05:20:18.558Z,92614.56
2023-07-29T05:23:01.840Z,92618.34
2023-07-29T05:25:44.789Z,92616.94
2023-07-29T05:28:27.758Z,92605.91
2023-07-29T05:31:12.051Z,92609.53
2023-07-29T05:33:55.050Z,92606.06
2023-07-29T05:36:38.643Z,92619.69
2023-07-29T05:39:21.834Z,92613.69
2023-07-29T05:42:05.055Z,92625.47
2023-07-29T05:44:47.941Z,92632.47
2023-07-29T05:47:32.230Z,92619.03
2023-07-29T05:50:15.436Z,92619.81
2023-07-29T05:52:58.380Z,92616.56
2023-07-29T05:55:41.265Z,92608.94
2023-07-29T05:58:24.200Z,92607.13
2023-07-29T06:01:07.732Z,92609.34
2023-07-29T06:03:52.236Z,92616.94
2023-07-29T06:06:35.501Z,92606.69
2023-07-29T06:09:18.802Z,92607.88
2023-07-29T06:12:01.807Z,92614.66
2023-07-29T06:14:44.774Z,92609.22
2023-07-29T06:17:27.696Z,92609.16
2023-07-29T06:20:12.745Z,92610.34
2023-07-29T06:22:55.619Z,92608.31
2023-07-29T06:25:38.529Z,92611.50
2023-07-29T06:28:21.437Z,92608.25
2023-07-29T06:31:04.402Z,92614.66
2023-07-29T06:33:47.272Z,92621.22
2023-07-29T06:36:31.546Z,92619.34
2023-07-29T06:39:14.474Z,92616.50
2023-07-29T06:41:57.343Z,92611.44
2023-07-29T06:44:40.456Z,92617.66
2023-07-29T06:47:23.404Z,92616.88
2023-07-29T06:50:07.172Z,92609.03
2023-07-29T06:52:51.545Z,92621.66
2023-07-29T06:55:34.402Z,92607.56
2023-07-29T06:58:17.330Z,92603.53
2023-07-29T07:01:00.200Z,92603.31
2023-07-29T07:03:43.232Z,92598.09
2023-07-29T07:06:26.267Z,92602.50
2023-07-29T07:09:10.439Z,92594.53
2023-07-29T07:11:53.628Z,92592.69
2023-07-29T07:14:36.468Z,92585.25
2023-07-29T07:17:19.382Z,92584.06
2023-07-29T07:20:02.270Z,92587.63
2023-07-29T07:22:45.148Z,92585.53
2023-07-29T07:25:29.355Z,92587.41
2023-07-29T07:28:12.425Z,92594.31
2023-07-29T07:30:56.933Z,92587.66
2023-07-29T07:33:39.895Z,92594.69
2023-07-29T07:36:23.006Z,92599.91
2023-07-29T07:39:05.959Z,92583.81
2023-07-29T07:41:50.153Z,92592.16
2023-07-29T07:44:33.119Z,92590.06
2023-07-29T07:47:15.955Z,92592.75
2023-07-29T07:49:58.995Z,92596.44
2023-07-29T07:52:41.882Z,92598.56
2023-07-29T07:55:24.741Z,92592.13
2023-07-29T07:58:08.978Z,92595.59
2023-07-29T08:00:51.844Z,92594.25
2023-07-29T08:03:34.866Z,92589.59
2023-07-29T08:06:17.743Z,92586.41
2023-07-29T08:09:00.918Z,92590.75
2023-07-29T08:11:43.780Z,92592.06
2023-07-29T08:14:28.057Z,92601.97
2023-07-29T08:17:10.938Z,92594.03
2023-07-29T08:19:53.930Z,92593.22
2023-07-29T08:22:36.806Z,92601.50
2023-07-29T08:25:19.642Z,92593.66
2023-07-29T08:28:02.589Z,92590.94
2023-07-29T08:30:46.855Z,92604.16
2023-07-29T08:33:30.146Z,92611.47
2023-07-29T08:36:13.010Z,92609.56
2023-07-29T08:38:55.853Z,92593.28
2023-07-29T08:41:48.037Z,92607.97
2023-07-29T08:44:37.135Z,92598.09
2023-07-29T08:47:21.519Z,92593.38
2023-07-29T08:50:05.965Z,92606.94
2023-07-29T08:52:52.280Z,92617.06
2023-07-29T08:55:35.349Z,92615.03
2023-07-29T08:58:18.526Z,92615.59
2023-07-29T09:01:01.808Z,92616.72
2023-07-29T09:03:46.113Z,92615.50
2023-07-29T09:06:29.523Z,92614.44
2023-07-29T09:09:12.441Z,92628.09
2023-07-29T09:11:55.724Z,92631.13
2023-07-29T09:14:38.627Z,92630.16
2023-07-29T09:17:23.214Z,92627.69
2023-07-29T09:20:11.696Z,92628.97
2023-07-29T09:22:55.800Z,92626.16
2023-07-29T09:25:39.606Z,92627.50
2023-07-29T09:28:24.454Z,92620.66
2023-07-29T09:31:07.968Z,92637.03
2023-07-29T09:33:51.217Z,92633.09
2023-07-29T09:36:37.043Z,92644.53
2023-07-29T09:39:20.289Z,92639.03
2023-07-29T09:42:04.092Z,92642.22
2023-07-29T09:44:47.020Z,92649.41
2023-07-29T09:47:30.951Z,92659.16
2023-07-29T09:50:13.850Z,92661.97
2023-07-29T09:53:00.037Z,92657.81
2023-07-29T09:55:48.744Z,92663.63
2023-07-29T09:58:31.919Z,92667.16
2023-07-29T10:01:16.068Z,92666.44
2023-07-29T10:04:01.261Z,92672.81
2023-07-29T10:06:44.881Z,92662.81
2023-07-29T10:09:29.650Z,92655.41
2023-07-29T10:12:13.196Z,92659.25
2023-07-29T10:14:57.300Z,92658.44
2023-07-29T10:17:41.591Z,92649.94
2023-07-29T10:20:24.757Z,92647.72
2023-07-29T10:23:10.825Z,92644.22
2023-07-29T10:25:59.985Z,92624.50
2023-07-29T10:28:48.220Z,92624.94
2023-07-29T10:31:31.982Z,92624.00
2023-07-29T10:34:16.411Z,92624.16
2023-07-29T10:37:00.262Z,92617.44
2023-07-29T10:39:53.706Z,92614.81
2023-07-29T10:42:38.163Z,92616.69
2023-07-29T10:45:22.697Z,92604.09
2023-07-29T10:48:09.772Z,92588.81
2023-07-29T10:50:52.723Z,92580.69
2023-07-29T10:53:35.682Z,92581.47
2023-07-29T10:56:28.353Z,92581.44
2023-07-29T10:59:36.104Z,92579.09
2023-07-29T11:02:20.418Z,92573.47
2023-07-29T11:05:08.137Z,92572.69
2023-07-29T11:07:51.484Z,92577.16
2023-07-29T11:10:45.004Z,92564.63
2023-07-29T11:13:29.354Z,92552.63
2023-07-29T11:16:18.577Z,92557.97
2023-07-29T11:19:02.807Z,92558.19
2023-07-29T11:21:45.724Z,92562.00
2023-07-29T11:24:28.557Z,92558.44
2023-07-29T11:27:13.555Z,92556.75
2023-07-29T11:29:59.296Z,92568.44
2023-07-29T11:32:44.584Z,92559.38
2023-07-29T11:35:27.517Z,92563.28
2023-07-29T11:38:10.482Z,92605.69
2023-07-29T11:40:57.567Z,92615.31
2023-07-29T11:43:40.536Z,92595.22
2023-07-29T11:46:24.923Z,92596.63
2023-07-29T11:49:09.256Z,92600.25
2023-07-29T11:51:52.414Z,92610.19
2023-07-29T11:54:36.857Z,92602.47
2023-07-29T11:57:20.391Z,92598.72
2023-07-29T12:00:07.512Z,92590.50
2023-07-29T12:02:53.415Z,92597.25
2023-07-29T12:05:40.014Z,92599.31
2023-07-29T12:08:26.806Z,92599.16
2023-07-29T12:11:10.960Z,92593.81
2023-07-29T12:13:55.651Z,92587.22
2023-07-29T12:16:45.222Z,92597.78
2023-07-29T12:19:34.274Z,92595.16
2023-07-29T12:22:21.831Z,92593.72
2023-07-29T12:25:05.929Z,92590.53
2023-07-29T12:27:49.152Z,92593.50
2023-07-29T12:30:32.146Z,92594.69
2023-07-29T12:33:31.726Z,92593.25
2023-07-29T12:36:14.635Z,92589.59
2023-07-29T12:39:02.673Z,92591.88
2023-07-29T12:41:45.878Z,92588.25
2023-07-29T12:44:34.229Z,92582.09
2023-07-29T12:47:17.211Z,92591.13
2023-07-29T12:50:00.174Z,92590.22
2023-07-29T12:52:43.138Z,92585.22
2023-07-29T12:55:27.394Z,92583.81
2023-07-29T12:58:10.374Z,92581.91
2023-07-29T13:00:53.831Z,92572.53
2023-07-29T13:03:36.868Z,92571.22
2023-07-29T13:06:19.873Z,92562.66
2023-07-29T13:09:02.797Z,92555.09
2023-07-29T13:11:47.124Z,92540.53
2023-07-29T13:14:30.058Z,92538.25
2023-07-29T13:17:12.988Z,92539.66
2023-07-29T13:19:55.913Z,92527.63
2023-07-29T13:22:38.856Z,92520.97
2023-07-29T13:25:22.040Z,92503.75
2023-07-29T13:28:06.417Z,92510.72
2023-07-29T13:30:49.390Z,92507.25
2023-07-29T13:33:34.985Z,92502.00
2023-07-29T13:36:17.920Z,92509.34
2023-07-29T13:39:00.835Z,92510.22
2023-07-29T13:41:43.910Z,92519.22
2023-07-29T13:44:28.272Z,92530.72
2023-07-29T13:47:11.192Z,92540.50
2023-07-29T13:49:54.130Z,92525.22
2023-07-29T13:52:38.501Z,92530.13
2023-07-29T13:55:21.526Z,92522.16
2023-07-29T13:58:04.482Z,92528.25
2023-07-29T14:00:48.737Z,92520.38
2023-07-29T14:03:31.652Z,92514.41
2023-07-29T14:06:14.613Z,92517.03
2023-07-29T14:08:57.591Z,92520.75
2023-07-29T14:11:40.538Z,92530.56
2023-07-29T14:14:23.490Z,92539.13
2023-07-29T14:17:09.443Z,92535.16
2023-07-29T14:19:52.365Z,92521.53
2023-07-29T14:22:35.298Z,92518.84
2023-07-29T14:25:18.292Z,92511.59
2023-07-29T14:28:01.259Z,92502.72
2023-07-29T14:30:44.288Z,92512.75
2023-07-29T14:33:28.952Z,92517.00
2023-07-29T14:36:11.744Z,92516.31
2023-07-29T14:38:54.648Z,92495.13
2023-07-29T14:41:37.570Z,92509.91
2023-07-29T14:44:20.461Z,92497.09
2023-07-29T14:47:03.384Z,92510.31
2023-07-29T14:49:48.159Z,92515.88
2023-07-29T14:52:31.097Z,92504.44
2023-07-29T14:55:14.152Z,92497.97
2023-07-29T14:57:57.090Z,92500.53
2023-07-29T15:00:40.021Z,92495.47
2023-07-29T15:03:23.138Z,92505.31
2023-07-29T15:06:07.579Z,92513.19
2023-07-29T15:08:50.572Z,92520.34
2023-07-29T15:11:34.308Z,92508.31
2023-07-29T15:14:17.570Z,92521.69
2023-07-29T15:17:00.499Z,92515.38
2023-07-29T15:19:43.617Z,92503.97
2023-07-29T15:22:27.907Z,92508.66
2023-07-29T15:25:11.774Z,92507.09
2023-07-29T15:27:54.734Z,92493.94
2023-07-29T15:30:39.273Z,92496.25
2023-07-29T15:33:23.011Z,92491.19
2023-07-29T15:36:06.429Z,92507.09
2023-07-29T15:38:50.855Z,92499.88
2023-07-29T15:41:34.962Z,92496.41
2023-07-29T15:44:18.034Z,92493.34
2023-07-29T15:47:01.199Z,92489.88
2023-07-29T15:49:44.109Z,92494.00
2023-07-29T15:52:28.051Z,92492.78
2023-07-29T15:55:12.400Z,92485.13
2023-07-29T15:57:55.333Z,92486.94
2023-07-29T16:00:38.268Z,92495.09
2023-07-29T16:03:21.284Z,92483.72
2023-07-29T16:06:04.590Z,92491.34
2023-07-29T16:08:47.508Z,92481.31
2023-07-29T16:11:31.839Z,92480.53
2023-07-29T16:14:15.148Z,92484.13
2023-07-29T16:16:58.086Z,92492.50
2023-07-29T16:19:55.672Z,92497.97
2023-07-29T16:22:38.607Z,92499.00
2023-07-29T16:25:21.571Z,92499.75
2023-07-29T16:28:06.135Z,92500.78
2023-07-29T16:30:49.116Z,92494.13
2023-07-29T16:33:32.070Z,92495.41
2023-07-29T16:36:15.020Z,92500.00
2023-07-29T16:38:58.020Z,92504.13
2023-07-29T16:42:04.376Z,92512.16
2023-07-29T16:44:45.213Z,92519.88
2023-07-29T16:47:28.327Z,92521.66
2023-07-29T16:50:11.678Z,92517.31
2023-07-29T16:52:55.069Z,92518.19
2023-07-29T16:55:38.050Z,92505.44
2023-07-29T16:58:21.707Z,92511.25
2023-07-29T17:01:06.186Z,92522.88
2023-07-29T17:03:49.286Z,92516.28
2023-07-29T17:06:32.264Z,92519.22
2023-07-29T17:09:15.278Z,92520.25
2023-07-29T17:12:00.693Z,92522.44
2023-07-29T17:14:43.675Z,92524.97
2023-07-29T17:17:28.027Z,92526.72
2023-07-29T17:20:11.725Z,92530.03
2023-07-29T17:22:54.657Z,92527.88
2023-07-29T17:25:37.608Z,92521.53
2023-07-29T17:28:20.621Z,92534.31
2023-07-29T17:31:04.156Z,92533.41
2023-07-29T17:33:49.066Z,92529.91
2023-07-29T17:36:32.099Z,92529.09
2023-07-29T17:39:15.007Z,92532.56
2023-07-29T17:41:57.936Z,92541.22
2023-07-29T17:44:40.919Z,92537.81
2023-07-29T17:47:24.034Z,92544.75
2023-07-29T17:50:09.475Z,92542.38
2023-07-29T17:52:52.940Z,92546.25
2023-07-29T17:55:38.865Z,92549.88
2023-07-29T17:58:21.898Z,92544.91
2023-07-29T18:01:05.027Z,92545.91
2023-07-29T18:03:48.043Z,92551.41
2023-07-29T18:06:32.390Z,92546.38
2023-07-29T18:09:15.654Z,92556.06
2023-07-29T18:12:02.076Z,92563.09
2023-07-29T18:14:45.836Z,92567.00
2023-07-29T18:17:28.788Z,92570.88
2023-07-29T18:20:12.634Z,92570.53
2023-07-29T18:23:01.786Z,92572.56
2023-07-29T18:25:44.757Z,92572.00
2023-07-29T18:28:27.794Z,92575.88
2023-07-29T18:31:11.750Z,92569.84
2023-07-29T18:33:54.701Z,92568.03
2023-07-29T18:36:37.856Z,92572.00
2023-07-29T18:39:22.440Z,92569.84
2023-07-29T18:42:05.830Z,92574.53
2023-07-29T18:44:48.798Z,92578.38
2023-07-29T18:47:31.728Z,92571.78
2023-07-29T18:50:14.689Z,92574.41
2023-07-29T18:52:59.237Z,92575.44
2023-07-29T18:55:45.744Z,92586.13
2023-07-29T18:58:28.689Z,92590.81
2023-07-29T19:01:12.002Z,92588.63
2023-07-29T19:03:55.303Z,92582.03
2023-07-29T19:06:38.501Z,92582.50
2023-07-29T19:09:21.670Z,92585.91
2023-07-29T19:12:06.481Z,92589.28
2023-07-29T19:14:49.407Z,92591.06
2023-07-29T19:17:32.600Z,92593.09
2023-07-29T19:20:15.550Z,92598.09
2023-07-29T19:22:58.469Z,92593.44
2023-07-29T19:25:46.502Z,92598.88
2023-07-29T19:28:30.898Z,92604.00
2023-07-29T19:31:14.948Z,92601.69
2023-07-29T19:33:58.004Z,92603.38
2023-07-29T19:36:40.937Z,92618.59
2023-07-29T19:39:24.062Z,92608.13
2023-07-29T19:42:07.642Z,92606.13
2023-07-29T19:44:52.188Z,92605.41
2023-07-29T19:47:35.187Z,92597.06
2023-07-29T19:50:18.361Z,92602.00
2023-07-29T19:53:01.304Z,92598.38
2023-07-29T19:55:51.236Z,92599.81
2023-07-29T19:58:34.261Z,92595.25
2023-07-29T20:01:19.217Z,92604.56
2023-07-29T20:04:02.241Z,92602.91
2023-07-29T20:06:45.237Z,92607.22
2023-07-29T20:09:28.427Z,92601.75
2023-07-29T20:12:11.473Z,92602.91
2023-07-29T20:14:56.005Z,92598.31
2023-07-29T20:17:44.358Z,92597.09
2023-07-29T20:20:27.414Z,92589.03
2023-07-29T20:23:10.378Z,92596.50
2023-07-29T20:25:53.347Z,92596.50
2023-07-29T20:28:36.620Z,92595.56
2023-07-29T20:31:19.671Z,92598.97
2023-07-29T20:34:04.003Z,92606.00
2023-07-29T20:36:46.931Z,92602.59
2023-07-29T20:39:30.296Z,92604.84
2023-07-29T20:42:13.244Z,92613.84
2023-07-29T20:44:56.189Z,92612.81
2023-07-29T20:47:39.213Z,92617.81
2023-07-29T20:50:24.312Z,92616.03
2023-07-29T20:53:07.299Z,92619.41
2023-07-29T20:55:50.218Z,92621.00
2023-07-29T20:58:33.311Z,92622.03
2023-07-29T21:01:16.303Z,92617.22
2023-07-29T21:04:00.079Z,92621.66
2023-07-29T21:06:44.371Z,92621.88
2023-07-29T21:09:27.270Z,92622.31
2023-07-29T21:12:10.627Z,92622.94
2023-07-29T21:14:53.546Z,92617.78
2023-07-29T21:17:36.488Z,92619.59
2023-07-29T21:20:19.493Z,92626.03
2023-07-29T21:23:04.040Z,92623.44
2023-07-29T21:25:48.268Z,92625.91
2023-07-29T21:28:31.264Z,92630.72
2023-07-29T21:31:16.958Z,92631.22
2023-07-29T21:34:01.079Z,92639.22
2023-07-29T21:36:44.042Z,92642.06
2023-07-29T21:39:28.338Z,92637.03
2023-07-29T21:42:11.257Z,92634.44
2023-07-29T21:44:54.216Z,92636.44
2023-07-29T21:47:37.266Z,92640.09
2023-07-29T21:50:21.220Z,92638.84
2023-07-29T21:53:04.135Z,92639.66
2023-07-29T21:55:48.445Z,92641.25
2023-07-29T21:58:31.400Z,92638.84
2023-07-29T22:01:14.377Z,92646.47
2023-07-29T22:03:57.365Z,92655.28
2023-07-29T22:06:40.283Z,92648.28
2023-07-29T22:09:24.835Z,92655.56
2023-07-29T22:12:10.122Z,92661.84
2023-07-29T22:14:53.131Z,92644.13
2023-07-29T22:17:36.117Z,92646.88
2023-07-29T22:20:19.127Z,92651.56
2023-07-29T22:23:03.013Z,92653.16
2023-07-29T22:25:45.996Z,92642.16
2023-07-29T22:28:31.285Z,92639.34
2023-07-29T22:31:14.331Z,92641.94
2023-07-29T22:33:57.279Z,92639.34
2023-07-29T22:36:40.321Z,92646.94
2023-07-29T22:39:23.339Z,92641.53
2023-07-29T22:42:06.729Z,92640.94
2023-07-29T22:44:51.033Z,92643.53
2023-07-29T22:47:34.307Z,92643.31
2023-07-29T22:50:17.345Z,92640.50
2023-07-29T22:53:00.262Z,92637.09
2023-07-29T22:55:44.106Z,92636.25
2023-07-29T22:58:27.064Z,92628.59
2023-07-29T23:01:11.401Z,92616.97
2023-07-29T23:03:54.389Z,92621.94
2023-07-29T23:06:37.733Z,92632.38
2023-07-29T23:09:20.886Z,92635.59
2023-07-29T23:12:03.858Z,92634.63
2023-07-29T23:14:46.795Z,92637.25
2023-07-29T23:17:31.114Z,92641.66
2023-07-29T23:20:14.325Z,92632.50
2023-07-29T23:22:57.374Z,92642.94
2023-07-29T23:25:40.289Z,92635.72
2023-07-29T23:28:23.263Z,92631.09
2023-07-29T23:31:06.350Z,92636.09
2023-07-29T23:33:50.655Z,92626.59
2023-07-29T23:36:33.570Z,92626.47
2023-07-29T23:39:16.541Z,92626.25
2023-07-29T23:41:59.453Z,92607.97
2023-07-29T23:44:42.409Z,92610.75
2023-07-29T23:47:25.414Z,92599.56
2023-07-29T23:50:10.787Z,92593.34
2023-07-29T23:52:53.742Z,92593.84
2023-07-29T23:55:36.764Z,92589.81
2023-07-29T23:58:19.721Z,92582.34
